createdAt,value
2022-11-04T00:01:41.107Z,66.66
2022-11-04T00:04:09.221Z,65.75
2022-11-04T00:06:37.163Z,66.29
2022-11-04T00:09:06.325Z,66.30
2022-11-04T00:11:52.102Z,66.29
2022-11-04T00:14:19.958Z,66.39
2022-11-04T00:17:06.022Z,65.85
2022-11-04T00:19:53.555Z,66.24
2022-11-04T00:22:39.430Z,66.58
2022-11-04T00:25:25.977Z,67.53
2022-11-04T00:28:12.288Z,66.54
2022-11-04T00:30:39.525Z,65.64
2022-11-04T00:33:28.412Z,65.86
2022-11-04T00:35:57.073Z,66.52
2022-11-04T00:38:25.223Z,67.33
2022-11-04T00:40:52.991Z,66.31
2022-11-04T00:43:20.260Z,66.56
2022-11-04T00:45:47.647Z,66.37
2022-11-04T00:48:14.954Z,66.58
2022-11-04T00:50:42.233Z,67.41
2022-11-04T00:53:09.957Z,66.28
2022-11-04T00:55:37.333Z,67.10
2022-11-04T00:58:04.546Z,66.79
2022-11-04T01:00:31.768Z,66.46
2022-11-04T01:03:00.339Z,66.44
2022-11-04T01:05:27.748Z,66.76
2022-11-04T01:07:55.002Z,66.81
2022-11-04T01:10:22.362Z,67.06
2022-11-04T01:12:52.315Z,67.14
2022-11-04T01:15:19.762Z,66.82
2022-11-04T01:17:47.037Z,66.56
2022-11-04T01:20:14.397Z,67.09
2022-11-04T01:22:41.700Z,66.58
2022-11-04T01:25:09.991Z,66.72
2022-11-04T01:27:37.334Z,66.61
2022-11-04T01:30:05.493Z,66.82
2022-11-04T01:32:32.696Z,67.41
2022-11-04T01:34:59.941Z,67.83
2022-11-04T01:37:27.199Z,67.94
2022-11-04T01:39:54.375Z,67.38
2022-11-04T01:42:22.782Z,67.52
2022-11-04T01:44:54.478Z,67.19
2022-11-04T01:47:40.928Z,67.61
2022-11-04T01:50:14.837Z,65.80
2022-11-04T01:52:51.881Z,66.08
2022-11-04T01:55:33.044Z,67.12
2022-11-04T01:58:05.745Z,66.46
2022-11-04T02:00:33.749Z,66.68
2022-11-04T02:03:04.905Z,66.61
2022-11-04T02:05:32.562Z,66.75
2022-11-04T02:08:02.653Z,67.76
2022-11-04T02:10:31.059Z,67.53
2022-11-04T02:13:00.525Z,67.36
2022-11-04T02:15:45.346Z,67.19
2022-11-04T02:18:16.390Z,66.46
2022-11-04T02:21:06.916Z,66.54
2022-11-04T02:23:59.288Z,66.62
2022-11-04T02:27:14.198Z,66.94
2022-11-04T02:29:44.014Z,65.75
2022-11-04T02:32:17.190Z,66.65
2022-11-04T02:34:53.589Z,67.02
2022-11-04T02:37:24.965Z,67.34
2022-11-04T02:40:10.459Z,67.63
2022-11-04T02:42:42.979Z,67.78
2022-11-04T02:45:22.229Z,67.63
2022-11-04T02:47:55.185Z,67.79
2022-11-04T02:50:33.114Z,67.11
2022-11-04T02:53:11.024Z,66.71
2022-11-04T02:55:42.412Z,67.29
2022-11-04T02:58:23.801Z,68.19
2022-11-04T03:00:53.401Z,67.94
2022-11-04T03:03:25.199Z,67.70
2022-11-04T03:05:53.833Z,67.33
2022-11-04T03:08:35.466Z,67.04
2022-11-04T03:11:06.650Z,67.33
2022-11-04T03:13:44.543Z,66.05
2022-11-04T03:16:15.944Z,66.94
2022-11-04T03:19:11.672Z,67.22
2022-11-04T03:21:42.107Z,67.28
2022-11-04T03:24:09.438Z,66.53
2022-11-04T03:26:51.574Z,66.85
2022-11-04T03:29:29.678Z,66.72
2022-11-04T03:32:14.531Z,67.13
2022-11-04T03:34:42.745Z,67.31
2022-11-04T03:37:10.866Z,66.17
2022-11-04T03:39:38.250Z,66.14
2022-11-04T03:42:20.573Z,66.56
2022-11-04T03:44:53.388Z,66.35
2022-11-04T03:47:23.552Z,66.25
2022-11-04T03:49:51.415Z,66.83
2022-11-04T03:52:19.311Z,66.40
2022-11-04T03:54:47.363Z,66.15
2022-11-04T03:57:17.673Z,66.74
2022-11-04T04:00:11.595Z,66.32
2022-11-04T04:02:57.795Z,66.75
2022-11-04T04:05:29.912Z,66.84
2022-11-04T04:08:16.639Z,67.69
2022-11-04T04:10:47.181Z,67.48
2022-11-04T04:13:46.715Z,67.46
2022-11-04T04:16:37.476Z,66.55
2022-11-04T04:19:06.581Z,66.65
2022-11-04T04:21:43.118Z,67.11
2022-11-04T04:24:30.097Z,67.36
2022-11-04T04:27:16.280Z,66.86
2022-11-04T04:29:44.376Z,67.23
2022-11-04T04:32:12.796Z,66.07
2022-11-04T04:34:40.278Z,66.41
2022-11-04T04:37:20.446Z,66.59
2022-11-04T04:40:07.346Z,66.08
2022-11-04T04:42:53.685Z,66.29
2022-11-04T04:45:31.881Z,66.34
2022-11-04T04:47:59.545Z,66.83
2022-11-04T04:50:29.931Z,66.47
2022-11-04T04:52:58.555Z,67.02
2022-11-04T04:55:25.738Z,67.00
2022-11-04T04:57:53.042Z,66.98
2022-11-04T05:00:21.162Z,65.86
2022-11-04T05:02:48.826Z,66.15
2022-11-04T05:07:48.766Z,65.99
2022-11-04T05:10:17.292Z,66.89
2022-11-04T05:13:03.216Z,66.98
2022-11-04T05:15:31.134Z,67.10
2022-11-04T05:18:00.718Z,66.18
2022-11-04T05:20:30.627Z,66.52
2022-11-04T05:22:57.852Z,66.31
2022-11-04T05:25:25.402Z,66.46
2022-11-04T05:27:52.686Z,66.08
2022-11-04T05:30:20.051Z,66.76
2022-11-04T05:32:47.312Z,66.02
2022-11-04T05:35:14.710Z,66.37
2022-11-04T05:37:41.969Z,66.27
2022-11-04T05:40:09.825Z,65.89
2022-11-04T05:42:37.185Z,66.43
2022-11-04T05:45:05.225Z,66.75
2022-11-04T05:47:32.525Z,66.27
2022-11-04T05:50:00.143Z,65.72
2022-11-04T05:52:27.432Z,66.41
2022-11-04T05:54:54.675Z,66.52
2022-11-04T05:57:21.891Z,66.82
2022-11-04T05:59:49.273Z,67.37
2022-11-04T06:02:16.802Z,66.52
2022-11-04T06:04:44.122Z,66.77
2022-11-04T06:07:12.047Z,66.93
2022-11-04T06:09:39.347Z,65.97
2022-11-04T06:12:10.507Z,66.06
2022-11-04T06:14:38.281Z,66.22
2022-11-04T06:17:05.603Z,66.12
2022-11-04T06:19:33.003Z,65.88
2022-11-04T06:22:00.659Z,66.39
2022-11-04T06:24:27.845Z,66.36
2022-11-04T06:26:55.088Z,66.70
2022-11-04T06:29:22.473Z,66.02
2022-11-04T06:31:49.719Z,66.07
2022-11-04T06:34:17.702Z,66.59
2022-11-04T06:36:45.197Z,66.33
2022-11-04T06:39:12.824Z,66.58
2022-11-04T06:41:42.911Z,65.88
2022-11-04T06:44:10.458Z,65.83
2022-11-04T06:46:39.997Z,66.50
2022-11-04T06:49:10.262Z,65.95
2022-11-04T06:51:37.658Z,66.56
2022-11-04T06:54:05.205Z,65.98
2022-11-04T06:56:32.376Z,65.91
2022-11-04T06:58:59.688Z,65.47
2022-11-04T07:01:29.202Z,65.56
2022-11-04T07:03:58.946Z,66.07
2022-11-04T07:06:27.563Z,66.24
2022-11-04T07:08:57.363Z,65.75
2022-11-04T07:11:25.296Z,66.76
2022-11-04T07:13:52.820Z,65.62
2022-11-04T07:16:20.655Z,66.79
2022-11-04T07:18:49.365Z,66.07
2022-11-04T07:21:16.666Z,66.43
2022-11-04T07:23:43.999Z,65.95
2022-11-04T07:26:12.179Z,65.77
2022-11-04T07:28:40.287Z,65.74
2022-11-04T07:31:11.326Z,66.38
2022-11-04T07:33:38.690Z,66.96
2022-11-04T07:36:07.990Z,66.93
2022-11-04T07:38:35.390Z,65.63
2022-11-04T07:41:02.977Z,61.83
2022-11-04T07:43:30.786Z,62.62
2022-11-04T07:46:06.741Z,62.49
2022-11-04T07:48:34.597Z,62.31
2022-11-04T07:51:02.152Z,63.82
2022-11-04T07:53:31.434Z,62.48
2022-11-04T07:55:58.935Z,62.26
2022-11-04T07:58:26.544Z,62.14
2022-11-04T08:01:09.638Z,62.83
2022-11-04T08:03:37.062Z,62.76
2022-11-04T08:06:06.843Z,62.34
2022-11-04T08:08:34.238Z,62.04
2022-11-04T08:11:28.528Z,61.97
2022-11-04T08:13:56.237Z,61.92
2022-11-04T08:16:28.697Z,61.90
2022-11-04T08:19:01.817Z,62.39
2022-11-04T08:21:29.743Z,63.99
2022-11-04T08:23:57.069Z,63.96
2022-11-04T08:26:24.553Z,62.25
2022-11-04T08:28:52.330Z,63.09
2022-11-04T08:31:26.969Z,62.18
2022-11-04T08:33:54.849Z,64.11
2022-11-04T08:36:28.615Z,65.94
2022-11-04T08:38:56.185Z,63.75
2022-11-04T08:41:29.660Z,62.70
2022-11-04T08:44:00.929Z,62.72
2022-11-04T08:46:43.196Z,62.45
2022-11-04T08:49:14.909Z,60.07
2022-11-04T08:51:47.566Z,59.85
2022-11-04T08:54:14.921Z,60.13
2022-11-04T08:56:42.136Z,60.73
2022-11-04T08:59:10.615Z,59.80
2022-11-04T09:01:38.349Z,58.16
2022-11-04T09:04:05.999Z,58.35
2022-11-04T09:06:39.523Z,58.59
2022-11-04T09:09:08.869Z,60.37
2022-11-04T09:11:39.471Z,62.62
2022-11-04T09:14:07.391Z,61.09
2022-11-04T09:16:35.971Z,60.39
2022-11-04T09:19:03.884Z,61.60
2022-11-04T09:21:31.644Z,63.54
2022-11-04T09:23:59.018Z,62.85
2022-11-04T09:26:26.800Z,68.82
2022-11-04T09:28:58.896Z,68.52
2022-11-04T09:31:28.880Z,67.33
2022-11-04T09:33:56.840Z,68.77
2022-11-04T09:36:24.142Z,69.17
2022-11-04T09:38:51.729Z,66.72
2022-11-04T09:41:51.677Z,69.74
2022-11-04T09:44:23.090Z,71.31
2022-11-04T09:46:53.451Z,73.19
2022-11-04T09:49:21.330Z,71.81
2022-11-04T09:51:54.995Z,73.00
2022-11-04T09:54:47.080Z,75.66
2022-11-04T09:57:19.015Z,74.19
2022-11-04T09:59:46.980Z,74.31
2022-11-04T10:02:21.845Z,71.67
2022-11-04T10:05:21.778Z,74.12
2022-11-04T10:07:58.394Z,73.59
2022-11-04T10:10:50.072Z,74.80
2022-11-04T10:14:09.002Z,72.50
2022-11-04T10:16:51.404Z,73.64
2022-11-04T10:19:35.695Z,73.80
2022-11-04T10:22:21.389Z,74.38
2022-11-04T10:24:50.792Z,73.37
2022-11-04T10:27:29.359Z,70.02
2022-11-04T10:29:58.075Z,70.77
2022-11-04T10:32:31.750Z,71.42
2022-11-04T10:35:22.742Z,72.44
2022-11-04T10:37:52.441Z,72.84
2022-11-04T10:40:32.112Z,73.50
2022-11-04T10:43:01.060Z,73.32
2022-11-04T10:45:37.031Z,72.76
2022-11-04T10:48:10.473Z,67.32
2022-11-04T10:50:50.271Z,66.96
2022-11-04T10:53:24.332Z,68.43
2022-11-04T10:56:05.137Z,71.44
2022-11-04T10:58:35.674Z,69.70
2022-11-04T11:01:28.319Z,67.88
2022-11-04T11:03:56.621Z,66.13
2022-11-04T11:06:30.092Z,67.42
2022-11-04T11:09:13.110Z,68.94
2022-11-04T11:11:49.190Z,64.18
2022-11-04T11:14:18.135Z,68.68
2022-11-04T11:16:45.879Z,68.87
2022-11-04T11:19:17.466Z,67.35
2022-11-04T11:21:50.818Z,67.53
2022-11-04T11:24:23.660Z,67.93
2022-11-04T11:26:54.008Z,67.76
2022-11-04T11:29:28.942Z,67.69
2022-11-04T11:31:57.818Z,64.69
2022-11-04T11:34:32.912Z,67.88
2022-11-04T11:37:05.590Z,65.51
2022-11-04T11:39:33.794Z,68.87
2022-11-04T11:42:11.557Z,69.74
2022-11-04T11:44:48.009Z,70.94
2022-11-04T11:47:19.000Z,74.14
2022-11-04T11:49:46.297Z,75.32
2022-11-04T11:52:27.928Z,77.02
2022-11-04T11:55:03.912Z,78.25
2022-11-04T12:00:48.520Z,79.57
2022-11-04T12:03:31.133Z,78.65
2022-11-04T12:06:23.957Z,77.66
2022-11-04T12:09:18.290Z,79.89
2022-11-04T12:12:16.621Z,74.30
2022-11-04T12:15:05.845Z,76.17
2022-11-04T12:18:05.306Z,74.34
2022-11-04T12:20:39.405Z,73.43
2022-11-04T12:23:18.109Z,72.24
2022-11-04T12:26:13.358Z,71.94
2022-11-04T12:28:58.335Z,73.71
2022-11-04T12:31:34.602Z,74.85
2022-11-04T12:34:38.960Z,73.46
2022-11-04T12:37:24.495Z,73.60
2022-11-04T12:40:04.672Z,74.28
2022-11-04T12:42:38.370Z,74.03
2022-11-04T12:45:13.119Z,74.70
2022-11-04T12:47:45.670Z,72.41
2022-11-04T12:50:21.866Z,71.78
2022-11-04T12:53:11.740Z,71.49
2022-11-04T12:55:58.356Z,71.34
2022-11-04T12:58:40.598Z,71.29
2022-11-04T13:01:17.467Z,71.44
2022-11-04T13:03:52.658Z,72.13
2022-11-04T13:06:25.692Z,71.79
2022-11-04T13:08:59.036Z,72.74
2022-11-04T13:11:41.955Z,74.78
2022-11-04T13:14:21.249Z,75.49
2022-11-04T13:16:51.950Z,74.81
2022-11-04T13:19:48.300Z,73.87
2022-11-04T13:22:36.542Z,74.83
2022-11-04T13:25:06.900Z,74.88
2022-11-04T13:27:37.670Z,76.40
2022-11-04T13:30:22.042Z,75.77
2022-11-04T13:33:07.987Z,80.76
2022-11-04T13:35:55.303Z,79.69
2022-11-04T13:38:30.424Z,80.27
2022-11-04T13:41:11.466Z,79.25
2022-11-04T13:44:11.265Z,80.74
2022-11-04T13:46:38.610Z,81.18
2022-11-04T13:49:12.011Z,81.01
2022-11-04T13:51:43.287Z,81.27
2022-11-04T13:54:39.377Z,82.29
2022-11-04T13:57:18.314Z,82.82
2022-11-04T14:00:16.787Z,82.73
2022-11-04T14:03:00.389Z,82.39
2022-11-04T14:05:27.844Z,81.79
2022-11-04T14:08:01.377Z,80.93
2022-11-04T14:10:50.971Z,81.34
2022-11-04T14:13:27.455Z,81.63
2022-11-04T14:16:05.441Z,80.72
2022-11-04T14:18:35.514Z,81.19
2022-11-04T14:21:17.900Z,76.44
2022-11-04T14:23:50.138Z,78.40
2022-11-04T14:26:47.116Z,79.59
2022-11-04T14:29:25.293Z,80.48
2022-11-04T14:31:58.180Z,79.72
2022-11-04T14:34:31.174Z,80.02
2022-11-04T14:37:01.796Z,79.90
2022-11-04T14:39:33.128Z,79.63
2022-11-04T14:42:02.603Z,79.90
2022-11-04T14:44:35.418Z,79.62
2022-11-04T14:47:14.411Z,78.95
2022-11-04T14:49:46.537Z,79.03
2022-11-04T14:52:29.896Z,79.54
2022-11-04T14:55:13.822Z,78.92
2022-11-04T14:57:52.642Z,77.95
2022-11-04T15:00:24.539Z,76.35
2022-11-04T15:03:06.487Z,77.48
2022-11-04T15:05:37.451Z,77.49
2022-11-04T15:08:27.091Z,77.75
2022-11-04T15:11:13.913Z,77.37
2022-11-04T15:13:44.065Z,75.89
2022-11-04T15:16:16.116Z,76.27
2022-11-04T15:18:43.456Z,75.89
2022-11-04T15:21:11.267Z,74.29
2022-11-04T15:23:46.741Z,74.56
2022-11-04T15:26:33.822Z,74.13
2022-11-04T15:29:07.629Z,72.50
2022-11-04T15:31:36.075Z,71.38
2022-11-04T15:34:08.197Z,70.38
2022-11-04T15:36:40.089Z,69.90
2022-11-04T15:39:07.293Z,69.37
2022-11-04T15:41:56.635Z,68.42
2022-11-04T15:44:26.726Z,68.14
2022-11-04T15:46:56.564Z,67.63
2022-11-04T15:49:28.820Z,68.03
2022-11-04T15:52:07.028Z,67.43
2022-11-04T15:54:40.945Z,66.74
2022-11-04T15:57:38.546Z,68.15
2022-11-04T16:00:25.058Z,67.97
2022-11-04T16:02:55.258Z,68.62
2022-11-04T16:05:37.486Z,68.43
2022-11-04T16:08:26.821Z,69.53
2022-11-04T16:11:16.124Z,69.81
2022-11-04T16:13:43.972Z,70.68
2022-11-04T16:16:23.018Z,70.42
2022-11-04T16:18:55.181Z,71.21
2022-11-04T16:21:30.628Z,70.65
2022-11-04T16:24:08.076Z,71.45
2022-11-04T16:26:44.605Z,71.48
2022-11-04T16:29:19.414Z,72.50
2022-11-04T16:31:46.663Z,73.55
2022-11-04T16:34:14.253Z,73.97
2022-11-04T16:36:41.599Z,74.00
2022-11-04T16:39:09.183Z,74.37
2022-11-04T16:41:38.919Z,74.65
2022-11-04T16:44:16.099Z,74.55
2022-11-04T16:46:45.381Z,74.36
2022-11-04T16:49:21.863Z,72.94
2022-11-04T16:51:54.153Z,73.80
2022-11-04T16:54:22.535Z,74.13
2022-11-04T16:56:49.950Z,74.61
2022-11-04T16:59:17.234Z,75.06
2022-11-04T17:01:44.544Z,75.37
2022-11-04T17:04:12.176Z,75.05
2022-11-04T17:06:39.587Z,75.57
2022-11-04T17:09:19.007Z,74.94
2022-11-04T17:11:46.400Z,76.21
2022-11-04T17:14:13.751Z,76.90
2022-11-04T17:16:41.048Z,76.86
2022-11-04T17:19:13.759Z,76.52
2022-11-04T17:21:41.433Z,75.50
2022-11-04T17:24:09.958Z,74.57
2022-11-04T17:26:37.252Z,76.14
2022-11-04T17:29:04.632Z,77.40
2022-11-04T17:31:32.070Z,78.50
2022-11-04T17:33:59.475Z,78.33
2022-11-04T17:36:26.893Z,78.65
2022-11-04T17:38:54.163Z,78.89
2022-11-04T17:41:40.044Z,78.48
2022-11-04T17:44:07.619Z,80.27
2022-11-04T17:46:35.303Z,80.26
2022-11-04T17:49:07.935Z,80.52
2022-11-04T17:51:57.854Z,79.67
2022-11-04T17:54:27.010Z,80.00
2022-11-04T17:56:54.239Z,81.21
2022-11-04T17:59:21.819Z,81.88
2022-11-04T18:01:49.246Z,80.91
2022-11-04T18:04:19.863Z,81.12
2022-11-04T18:06:47.366Z,80.26
2022-11-04T18:09:15.661Z,80.59
2022-11-04T18:12:02.938Z,80.40
2022-11-04T18:14:30.610Z,80.90
2022-11-04T18:16:58.045Z,80.46
2022-11-04T18:19:26.065Z,80.62
2022-11-04T18:21:53.469Z,80.05
2022-11-04T18:24:20.793Z,80.09
2022-11-04T18:26:48.162Z,80.39
2022-11-04T18:29:16.096Z,80.09
2022-11-04T18:31:48.999Z,79.76
2022-11-04T18:34:19.297Z,79.85
2022-11-04T18:36:47.996Z,79.83
2022-11-04T18:39:17.655Z,78.54
2022-11-04T18:41:45.774Z,78.76
2022-11-04T18:44:18.853Z,79.59
2022-11-04T18:46:46.720Z,79.92
2022-11-04T18:49:15.156Z,80.34
2022-11-04T18:51:43.575Z,79.45
2022-11-04T18:54:11.382Z,79.52
2022-11-04T18:56:38.739Z,80.04
2022-11-04T18:59:09.493Z,79.13
2022-11-04T19:01:37.883Z,78.11
2022-11-04T19:04:05.316Z,79.07
2022-11-04T19:06:34.928Z,79.00
2022-11-04T19:09:32.118Z,78.66
2022-11-04T19:12:13.122Z,78.52
2022-11-04T19:14:40.460Z,77.73
2022-11-04T19:17:07.666Z,77.59
2022-11-04T19:19:34.858Z,78.47
2022-11-04T19:22:02.225Z,79.04
2022-11-04T19:24:29.594Z,79.73
2022-11-04T19:26:56.949Z,79.67
2022-11-04T19:29:24.334Z,79.79
2022-11-04T19:31:51.793Z,80.70
2022-11-04T19:34:19.100Z,80.94
2022-11-04T19:36:46.500Z,80.85
2022-11-04T19:39:13.956Z,80.74
2022-11-04T19:41:59.905Z,80.15
2022-11-04T19:44:27.192Z,80.09
2022-11-04T19:46:54.455Z,79.66
2022-11-04T19:49:21.827Z,77.73
2022-11-04T19:51:49.144Z,78.43
2022-11-04T19:54:16.436Z,78.79
2022-11-04T19:56:43.967Z,80.14
2022-11-04T19:59:12.499Z,80.51
2022-11-04T20:01:40.182Z,79.31
2022-11-04T20:04:07.597Z,79.79
2022-11-04T20:06:35.548Z,79.75
2022-11-04T20:09:05.366Z,79.16
2022-11-04T20:11:57.380Z,79.44
2022-11-04T20:14:25.105Z,79.70
2022-11-04T20:16:52.637Z,79.37
2022-11-04T20:19:22.857Z,78.05
2022-11-04T20:21:50.778Z,77.88
2022-11-04T20:24:18.050Z,79.12
2022-11-04T20:26:46.919Z,79.09
2022-11-04T20:29:16.302Z,78.96
2022-11-04T20:31:44.312Z,79.75
2022-11-04T20:34:12.822Z,79.62
2022-11-04T20:36:40.981Z,78.52
2022-11-04T20:39:13.354Z,78.48
2022-11-04T20:41:41.170Z,79.89
2022-11-04T20:44:10.627Z,78.92
2022-11-04T20:46:38.188Z,78.59
2022-11-04T20:49:05.544Z,77.68
2022-11-04T20:51:36.009Z,78.52
2022-11-04T20:54:06.738Z,78.65
2022-11-04T20:56:35.983Z,77.07
2022-11-04T20:59:04.068Z,78.51
2022-11-04T21:01:36.080Z,77.46
2022-11-04T21:04:08.307Z,76.91
2022-11-04T21:06:39.959Z,77.04
2022-11-04T21:09:09.842Z,77.27
2022-11-04T21:11:39.021Z,77.52
2022-11-04T21:14:12.884Z,76.25
2022-11-04T21:16:40.580Z,75.91
2022-11-04T21:19:08.118Z,76.41
2022-11-04T21:21:35.505Z,76.47
2022-11-04T21:24:04.962Z,75.69
2022-11-04T21:26:34.448Z,76.96
2022-11-04T21:29:05.094Z,76.79
2022-11-04T21:31:33.705Z,76.01
2022-11-04T21:34:01.592Z,75.55
2022-11-04T21:36:29.532Z,76.11
2022-11-04T21:38:58.185Z,76.46
2022-11-04T21:41:27.903Z,76.36
2022-11-04T21:43:56.449Z,75.81
2022-11-04T21:46:24.672Z,75.10
2022-11-04T21:48:54.597Z,75.37
2022-11-04T21:51:24.576Z,75.83
2022-11-04T21:53:52.050Z,75.31
2022-11-04T21:56:22.028Z,75.34
2022-11-04T21:58:49.384Z,75.04
2022-11-04T22:01:18.692Z,74.47
2022-11-04T22:03:51.036Z,74.42
2022-11-04T22:06:19.282Z,74.66
2022-11-04T22:08:49.272Z,74.89
2022-11-04T22:11:19.406Z,74.58
2022-11-04T22:13:46.733Z,75.16
2022-11-04T22:16:16.714Z,74.41
2022-11-04T22:18:44.146Z,74.76
2022-11-04T22:21:17.289Z,75.07
2022-11-04T22:23:45.257Z,74.98
2022-11-04T22:26:26.941Z,75.15
2022-11-04T22:28:55.457Z,75.71
2022-11-04T22:31:33.688Z,76.04
2022-11-04T22:34:01.561Z,75.73
2022-11-04T22:36:30.374Z,75.34
2022-11-04T22:38:58.252Z,74.69
2022-11-04T22:41:28.126Z,75.59
2022-11-04T22:43:56.286Z,77.11
2022-11-04T22:46:28.849Z,77.21
2022-11-04T22:48:56.570Z,77.17
2022-11-04T22:51:23.782Z,76.77
2022-11-04T22:53:58.833Z,77.13
2022-11-04T22:56:28.960Z,77.31
2022-11-04T22:58:56.255Z,77.73
2022-11-04T23:01:25.999Z,78.23
2022-11-04T23:03:53.699Z,77.98
2022-11-04T23:06:21.052Z,78.09
2022-11-04T23:08:48.329Z,77.95
2022-11-04T23:11:43.607Z,77.33
2022-11-04T23:14:31.378Z,76.48
2022-11-04T23:17:17.281Z,77.57
2022-11-04T23:19:44.638Z,78.14
2022-11-04T23:22:30.435Z,78.30
2022-11-04T23:25:06.730Z,77.92
2022-11-04T23:27:53.800Z,78.46
2022-11-04T23:30:21.611Z,78.18
2022-11-04T23:32:52.340Z,78.34
2022-11-04T23:35:40.345Z,78.38
2022-11-04T23:38:07.728Z,79.12
2022-11-04T23:40:35.031Z,79.07
2022-11-04T23:43:02.442Z,78.34
2022-11-04T23:45:48.407Z,78.01
2022-11-04T23:48:34.741Z,78.01
2022-11-04T23:51:41.484Z,77.84
2022-11-04T23:54:27.162Z,78.69
2022-11-04T23:57:13.570Z,78.64
2022-11-04T23:59:59.332Z,78.87
